Time;durP1;ratioP1;P1;durP2;ratioP2;P2;SDS_P1;SDS_P2;PMS_P1;PMS_P2;Temp;Humidity;BMP_temperature;BMP_pressure;BME280_temperature;BME280_humidity;BME280_pressure;Samples;Min_cycle;Max_cycle;Signal;HPM_P1;HPM_P2
2021/10/12 00:00:09;;;;;;;19.15;2.40;;;;;;;;;;4989126;28;20076;-70
2021/10/12 00:02:35;;;;;;;24.70;3.92;;;;;;;;;;4990473;28;20026;-70
2021/10/12 00:05:01;;;;;;;10.45;2.50;;;;;;;;;;4989457;28;20042;-71
2021/10/12 00:07:27;;;;;;;15.10;2.20;;;;;;;;;;4993467;28;20030;-70
2021/10/12 00:09:53;;;;;;;18.48;2.30;;;;;;;;;;4989087;28;20031;-71
2021/10/12 00:12:20;;;;;;;10.55;1.75;;;;;;;;;;4989823;28;20285;-70
2021/10/12 00:14:46;;;;;;;10.95;2.45;;;;;;;;;;4982047;28;20046;-71
2021/10/12 00:17:12;;;;;;;13.68;3.00;;;;;;;;;;4988819;28;20034;-70
2021/10/12 00:19:38;;;;;;;16.75;3.03;;;;;;;;;;4989347;28;20603;-70
2021/10/12 00:22:04;;;;;;;11.70;3.00;;;;;;;;;;4989308;28;20030;-70
2021/10/12 00:24:30;;;;;;;11.57;2.85;;;;;;;;;;5011061;28;20039;-70
2021/10/12 00:26:56;;;;;;;9.75;2.80;;;;;;;;;;4987840;28;20097;-70
2021/10/12 00:29:22;;;;;;;16.30;3.33;;;;;;;;;;4989181;28;20026;-71
2021/10/12 00:31:48;;;;;;;12.20;3.03;;;;;;;;;;4991383;28;20045;-70
2021/10/12 00:34:14;;;;;;;15.90;3.72;;;;;;;;;;4989343;28;20027;-71
2021/10/12 00:36:40;;;;;;;13.90;3.55;;;;;;;;;;4988518;28;20033;-70
2021/10/12 00:39:07;;;;;;;16.30;3.10;;;;;;;;;;4985370;28;20137;-71
2021/10/12 00:41:33;;;;;;;14.60;3.05;;;;;;;;;;4985622;28;20097;-71
2021/10/12 00:44:00;;;;;;;15.98;3.58;;;;;;;;;;4990401;28;20414;-71
2021/10/12 00:46:26;;;;;;;12.90;3.97;;;;;;;;;;4989417;28;20026;-71
2021/10/12 00:48:52;;;;;;;12.68;3.00;;;;;;;;;;4989581;28;20442;-70
2021/10/12 00:51:18;;;;;;;13.50;2.65;;;;;;;;;;4986461;28;20387;-70
2021/10/12 00:53:44;;;;;;;21.17;3.17;;;;;;;;;;4995365;28;20068;-71
2021/10/12 00:56:11;;;;;;;12.88;3.22;;;;;;;;;;4988413;28;20040;-71
2021/10/12 00:58:37;;;;;;;11.55;3.30;;;;;;;;;;4988686;28;20030;-71
2021/10/12 01:01:03;;;;;;;19.08;2.90;;;;;;;;;;4992853;28;20065;-70
2021/10/12 01:03:29;;;;;;;8.38;2.45;;;;;;;;;;4992905;28;20018;-70
2021/10/12 01:05:55;;;;;;;13.77;2.47;;;;;;;;;;4989758;28;20129;-70
2021/10/12 01:08:21;;;;;;;18.67;2.65;;;;;;;;;;4985954;28;20033;-71
2021/10/12 01:10:47;;;;;;;8.73;2.33;;;;;;;;;;4993709;28;20034;-71
2021/10/12 01:13:14;;;;;;;14.40;2.92;;;;;;;;;;4986323;28;20031;-70
2021/10/12 01:15:40;;;;;;;10.88;2.10;;;;;;;;;;4989667;28;20113;-70
2021/10/12 01:18:15;;;;;;;13.32;2.22;;;;;;;;;;4993562;28;20034;-70
2021/10/12 01:20:41;;;;;;;9.73;2.00;;;;;;;;;;4993513;28;20096;-70
2021/10/12 01:23:07;;;;;;;8.55;2.00;;;;;;;;;;4994089;28;20030;-70
2021/10/12 01:25:33;;;;;;;14.30;2.60;;;;;;;;;;4991197;28;20049;-70
2021/10/12 01:28:00;;;;;;;13.63;2.75;;;;;;;;;;4991884;28;20076;-71
2021/10/12 01:30:26;;;;;;;11.30;2.40;;;;;;;;;;4993064;28;20026;-70
2021/10/12 01:32:53;;;;;;;10.88;2.47;;;;;;;;;;4992544;28;20030;-71
2021/10/12 01:35:19;;;;;;;11.70;2.85;;;;;;;;;;4994889;28;20026;-71
2021/10/12 01:37:45;;;;;;;8.90;2.03;;;;;;;;;;4990658;28;20517;-70
2021/10/12 01:40:12;;;;;;;11.70;2.45;;;;;;;;;;4988810;28;20577;-70
2021/10/12 01:42:38;;;;;;;9.73;2.65;;;;;;;;;;4993183;28;20026;-71
2021/10/12 01:45:06;;;;;;;8.52;2.38;;;;;;;;;;4992985;28;20022;-70
2021/10/12 01:47:32;;;;;;;17.58;2.65;;;;;;;;;;4995153;28;20414;-71
2021/10/12 01:49:58;;;;;;;16.95;2.95;;;;;;;;;;4989072;28;20385;-71
2021/10/12 01:52:24;;;;;;;9.40;2.20;;;;;;;;;;4993009;28;20027;-71
2021/10/12 01:54:50;;;;;;;15.18;3.30;;;;;;;;;;4992842;28;20030;-70
2021/10/12 01:57:20;;;;;;;10.25;2.70;;;;;;;;;;4985443;28;20026;-70
2021/10/12 01:59:46;;;;;;;12.55;3.28;;;;;;;;;;4991486;28;20035;-70
2021/10/12 02:02:12;;;;;;;9.38;2.10;;;;;;;;;;4992782;28;20030;-70
2021/10/12 02:04:38;;;;;;;15.50;2.63;;;;;;;;;;4992048;28;20026;-70
2021/10/12 02:07:05;;;;;;;12.13;2.30;;;;;;;;;;4988257;28;20057;-70
2021/10/12 02:09:31;;;;;;;15.55;3.00;;;;;;;;;;4990663;28;20033;-70
2021/10/12 02:11:57;;;;;;;15.20;2.75;;;;;;;;;;4996126;28;20474;-70
2021/10/12 02:14:23;;;;;;;11.25;2.67;;;;;;;;;;4984670;28;20038;-70
2021/10/12 02:16:50;;;;;;;13.80;2.58;;;;;;;;;;4991072;28;20238;-70
2021/10/12 02:19:16;;;;;;;12.85;2.38;;;;;;;;;;4988063;28;20038;-70
2021/10/12 02:21:42;;;;;;;12.32;2.90;;;;;;;;;;4990417;28;20033;-70
2021/10/12 02:24:09;;;;;;;13.02;2.17;;;;;;;;;;4990529;28;20527;-70
2021/10/12 02:26:35;;;;;;;9.40;2.70;;;;;;;;;;4990932;28;20073;-70
2021/10/12 02:29:01;;;;;;;13.85;2.63;;;;;;;;;;5005074;28;20019;-71
2021/10/12 02:31:27;;;;;;;9.20;2.10;;;;;;;;;;4992166;28;20022;-70
2021/10/12 02:33:53;;;;;;;16.42;3.53;;;;;;;;;;4990348;28;20062;-70
2021/10/12 02:36:19;;;;;;;11.13;2.72;;;;;;;;;;4989860;28;20399;-70
2021/10/12 02:38:45;;;;;;;14.80;3.08;;;;;;;;;;4989412;28;20530;-70
2021/10/12 02:41:11;;;;;;;12.40;2.22;;;;;;;;;;4990386;28;20027;-71
2021/10/12 02:43:37;;;;;;;16.25;4.03;;;;;;;;;;4992965;28;20073;-70
2021/10/12 02:46:03;;;;;;;15.80;3.17;;;;;;;;;;4982853;28;20030;-70
2021/10/12 02:48:30;;;;;;;16.98;3.30;;;;;;;;;;4988059;28;20023;-72
2021/10/12 02:50:56;;;;;;;10.98;2.92;;;;;;;;;;4983983;28;20030;-70
2021/10/12 02:53:22;;;;;;;15.73;3.47;;;;;;;;;;4992054;28;20022;-70
2021/10/12 02:55:48;;;;;;;20.85;4.25;;;;;;;;;;4984537;28;20034;-70
2021/10/12 02:58:14;;;;;;;12.95;3.10;;;;;;;;;;4990259;28;20030;-70
2021/10/12 03:00:40;;;;;;;18.48;2.70;;;;;;;;;;4991540;28;20038;-70
2021/10/12 03:03:10;;;;;;;20.92;4.05;;;;;;;;;;4990216;28;20057;-70
2021/10/12 03:05:36;;;;;;;17.50;3.22;;;;;;;;;;4991989;28;20118;-70
2021/10/12 03:08:02;;;;;;;16.63;3.35;;;;;;;;;;4989733;28;20097;-71
2021/10/12 03:10:28;;;;;;;15.65;3.25;;;;;;;;;;4991641;28;20034;-71
2021/10/12 03:12:54;;;;;;;15.43;3.15;;;;;;;;;;4992128;28;20076;-71
2021/10/12 03:15:21;;;;;;;14.18;3.03;;;;;;;;;;4990719;28;20041;-70
2021/10/12 03:17:47;;;;;;;14.43;3.00;;;;;;;;;;4991344;28;20034;-70
2021/10/12 03:20:13;;;;;;;17.63;3.15;;;;;;;;;;4991864;28;20019;-70
2021/10/12 03:22:39;;;;;;;13.77;3.65;;;;;;;;;;4989273;28;20525;-72
2021/10/12 03:25:06;;;;;;;11.38;3.67;;;;;;;;;;4990549;28;20053;-70
2021/10/12 03:27:32;;;;;;;16.85;3.88;;;;;;;;;;4989613;28;20034;-71
2021/10/12 03:29:58;;;;;;;17.85;3.58;;;;;;;;;;4990427;28;20030;-70
2021/10/12 03:32:24;;;;;;;18.42;3.95;;;;;;;;;;4991843;28;20029;-70
2021/10/12 03:34:50;;;;;;;11.77;3.03;;;;;;;;;;4987107;28;20038;-70
2021/10/12 03:37:16;;;;;;;16.25;4.57;;;;;;;;;;4988618;28;20042;-70
2021/10/12 03:39:42;;;;;;;19.48;3.67;;;;;;;;;;4989127;28;20039;-70
2021/10/12 03:42:08;;;;;;;13.73;3.05;;;;;;;;;;4989588;28;20025;-70
2021/10/12 03:44:34;;;;;;;12.95;3.03;;;;;;;;;;4994872;28;20033;-70
2021/10/12 03:47:00;;;;;;;18.50;4.22;;;;;;;;;;4990453;28;20053;-70
2021/10/12 03:49:26;;;;;;;13.93;3.25;;;;;;;;;;4990538;28;20018;-71
2021/10/12 03:51:52;;;;;;;20.40;3.00;;;;;;;;;;4989306;28;20034;-71
2021/10/12 03:54:18;;;;;;;20.70;3.78;;;;;;;;;;4985742;28;20026;-70
2021/10/12 03:56:45;;;;;;;15.82;3.45;;;;;;;;;;4990621;28;20023;-70
2021/10/12 03:59:11;;;;;;;17.55;3.30;;;;;;;;;;4988558;28;20062;-70
2021/10/12 04:01:37;;;;;;;16.50;4.32;;;;;;;;;;4988972;28;20406;-70
2021/10/12 04:04:03;;;;;;;17.98;3.85;;;;;;;;;;4988726;28;20092;-70
2021/10/12 04:06:30;;;;;;;22.77;4.10;;;;;;;;;;4987531;28;20026;-70
2021/10/12 04:08:56;;;;;;;13.15;4.07;;;;;;;;;;4981890;28;20049;-70
2021/10/12 04:11:24;;;;;;;21.13;4.72;;;;;;;;;;4990223;28;20029;-70
2021/10/12 04:13:50;;;;;;;17.60;3.40;;;;;;;;;;4990655;28;20034;-70
2021/10/12 04:16:16;;;;;;;19.30;4.15;;;;;;;;;;4991054;28;20027;-71
2021/10/12 04:18:42;;;;;;;18.42;4.38;;;;;;;;;;4988606;28;20035;-69
2021/10/12 04:21:08;;;;;;;18.45;4.50;;;;;;;;;;4991441;28;20034;-70
2021/10/12 04:23:36;;;;;;;17.50;3.13;;;;;;;;;;4994664;28;20113;-69
2021/10/12 04:26:06;;;;;;;14.40;3.72;;;;;;;;;;4991008;28;20034;-70
2021/10/12 04:28:32;;;;;;;22.33;3.38;;;;;;;;;;4988682;28;20027;-70
2021/10/12 04:30:58;;;;;;;16.98;3.58;;;;;;;;;;4990483;28;20062;-70
2021/10/12 04:33:24;;;;;;;25.63;4.05;;;;;;;;;;4989518;28;20026;-70
2021/10/12 04:35:50;;;;;;;21.65;3.47;;;;;;;;;;4991423;28;20037;-70
2021/10/12 04:38:16;;;;;;;24.10;3.92;;;;;;;;;;4988277;28;20038;-68
2021/10/12 04:40:42;;;;;;;26.75;3.92;;;;;;;;;;4993195;28;20129;-69
2021/10/12 04:43:09;;;;;;;24.88;4.25;;;;;;;;;;4993511;28;20026;-70
2021/10/12 04:45:35;;;;;;;21.13;4.90;;;;;;;;;;4993657;28;20027;-69
2021/10/12 04:48:01;;;;;;;20.55;3.50;;;;;;;;;;4993696;28;20034;-70
2021/10/12 04:50:27;;;;;;;21.65;4.38;;;;;;;;;;4992126;28;20156;-69
2021/10/12 04:52:53;;;;;;;23.08;3.92;;;;;;;;;;4993997;28;20558;-69
2021/10/12 04:55:19;;;;;;;20.33;4.10;;;;;;;;;;4986244;28;20367;-70
2021/10/12 04:57:45;;;;;;;17.67;3.75;;;;;;;;;;4990481;28;20034;-69
2021/10/12 05:00:13;;;;;;;17.95;4.40;;;;;;;;;;4990115;28;20497;-71
2021/10/12 05:02:39;;;;;;;22.15;3.95;;;;;;;;;;4999953;28;20098;-70
2021/10/12 05:05:05;;;;;;;16.75;3.50;;;;;;;;;;5007541;28;20376;-70
2021/10/12 05:07:31;;;;;;;23.42;4.32;;;;;;;;;;4993082;28;20057;-70
2021/10/12 05:09:57;;;;;;;13.93;3.00;;;;;;;;;;4990219;28;20100;-69
2021/10/12 05:12:23;;;;;;;18.25;3.45;;;;;;;;;;4992403;28;20035;-70
2021/10/12 05:14:49;;;;;;;22.52;4.18;;;;;;;;;;4990424;28;20399;-69
2021/10/12 05:17:22;;;;;;;12.88;2.83;;;;;;;;;;4993333;28;20022;-70
2021/10/12 05:19:49;;;;;;;20.25;3.42;;;;;;;;;;4989445;28;20529;-69
2021/10/12 05:22:15;;;;;;;23.25;3.65;;;;;;;;;;4992835;28;20179;-69
2021/10/12 05:24:41;;;;;;;15.18;3.47;;;;;;;;;;4987307;28;20472;-70
2021/10/12 05:27:07;;;;;;;17.90;4.03;;;;;;;;;;4989530;28;20030;-70
2021/10/12 05:29:33;;;;;;;11.80;2.78;;;;;;;;;;4988170;28;20023;-70
2021/10/12 05:31:59;;;;;;;11.77;3.17;;;;;;;;;;4989107;28;20037;-69
2021/10/12 05:34:26;;;;;;;18.25;3.15;;;;;;;;;;4992190;28;20022;-69
2021/10/12 05:36:52;;;;;;;13.68;3.10;;;;;;;;;;4987643;28;20022;-69
2021/10/12 05:39:18;;;;;;;19.63;2.80;;;;;;;;;;4990075;28;20422;-70
2021/10/12 05:41:44;;;;;;;11.95;2.83;;;;;;;;;;5050815;23;20465;-72
2021/10/12 05:44:10;;;;;;;19.05;3.78;;;;;;;;;;4946334;28;20536;-73
2021/10/12 05:46:36;;;;;;;12.13;3.75;;;;;;;;;;4953414;28;20034;-72
2021/10/12 05:49:02;;;;;;;15.68;3.45;;;;;;;;;;4948910;28;20034;-70
2021/10/12 05:51:28;;;;;;;12.02;2.65;;;;;;;;;;4951567;28;20023;-72
2021/10/12 05:53:57;;;;;;;14.70;2.80;;;;;;;;;;4953361;28;20505;-72
2021/10/12 05:58:50;;;;;;;13.90;3.10;;;;;;;;;;4941771;28;20043;-71
2021/10/12 06:01:17;;;;;;;21.02;2.92;;;;;;;;;;4950534;28;20035;-71
2021/10/12 06:03:43;;;;;;;11.65;2.53;;;;;;;;;;4952099;28;20516;-71
2021/10/12 06:06:11;;;;;;;17.83;3.38;;;;;;;;;;4954087;28;20278;-71
2021/10/12 06:08:37;;;;;;;17.52;3.33;;;;;;;;;;4950167;28;20019;-72
2021/10/12 06:11:04;;;;;;;17.05;3.75;;;;;;;;;;4949234;28;20069;-72
2021/10/12 06:13:30;;;;;;;15.77;3.17;;;;;;;;;;4952642;28;20035;-72
2021/10/12 06:15:57;;;;;;;20.27;3.72;;;;;;;;;;4948348;28;20039;-73
2021/10/12 06:18:23;;;;;;;19.73;3.03;;;;;;;;;;4952888;28;20169;-72
2021/10/12 06:20:49;;;;;;;24.98;3.92;;;;;;;;;;4951577;28;20039;-72
2021/10/12 06:23:16;;;;;;;17.60;3.65;;;;;;;;;;4951437;28;20398;-72
2021/10/12 06:25:42;;;;;;;14.23;3.13;;;;;;;;;;4951116;28;20030;-72
2021/10/12 06:28:08;;;;;;;10.98;2.28;;;;;;;;;;4948039;28;20388;-72
2021/10/12 06:30:35;;;;;;;15.38;2.95;;;;;;;;;;4952271;28;20043;-73
2021/10/12 06:33:01;;;;;;;16.73;3.28;;;;;;;;;;4937063;28;20063;-72
2021/10/12 06:35:29;;;;;;;14.35;2.67;;;;;;;;;;4957826;28;20031;-73
2021/10/12 06:37:55;;;;;;;21.92;2.80;;;;;;;;;;4941072;28;20395;-73
2021/10/12 06:40:21;;;;;;;13.43;3.10;;;;;;;;;;4933436;28;20051;-73
2021/10/12 06:42:47;;;;;;;10.35;2.60;;;;;;;;;;4940441;29;20051;-73
2021/10/12 06:45:16;;;;;;;22.70;3.58;;;;;;;;;;4945918;29;20024;-72
2021/10/12 06:47:42;;;;;;;26.88;5.13;;;;;;;;;;4946253;28;20434;-73
2021/10/12 06:50:09;;;;;;;17.48;3.70;;;;;;;;;;4961164;28;20031;-73
2021/10/12 06:52:35;;;;;;;20.17;3.67;;;;;;;;;;4937186;29;20107;-73
2021/10/12 06:55:01;;;;;;;17.77;4.55;;;;;;;;;;4949237;29;20020;-73
2021/10/12 06:57:27;;;;;;;11.60;2.95;;;;;;;;;;4958587;28;20159;-72
2021/10/12 06:59:53;;;;;;;23.63;4.00;;;;;;;;;;4939689;29;20122;-73
2021/10/12 07:02:19;;;;;;;13.50;3.05;;;;;;;;;;4947902;28;20063;-73
2021/10/12 07:04:45;;;;;;;23.50;3.40;;;;;;;;;;4938031;28;20032;-73
2021/10/12 07:07:11;;;;;;;17.65;3.25;;;;;;;;;;4959314;28;20070;-73
2021/10/12 07:09:37;;;;;;;18.02;4.03;;;;;;;;;;4950688;28;20027;-73
2021/10/12 07:12:04;;;;;;;18.30;4.25;;;;;;;;;;4968001;28;20043;-73
2021/10/12 07:14:30;;;;;;;13.05;3.72;;;;;;;;;;4968169;28;20405;-73
2021/10/12 07:16:56;;;;;;;16.15;3.17;;;;;;;;;;4948493;28;20034;-72
2021/10/12 07:19:22;;;;;;;15.40;2.40;;;;;;;;;;4933481;29;20437;-74
2021/10/12 07:21:48;;;;;;;14.77;2.78;;;;;;;;;;4957510;28;20031;-72
2021/10/12 07:24:14;;;;;;;16.00;3.78;;;;;;;;;;4949450;28;20023;-73
2021/10/12 07:26:40;;;;;;;16.25;2.90;;;;;;;;;;4941435;28;20031;-73
2021/10/12 07:29:06;;;;;;;15.15;3.38;;;;;;;;;;4930636;28;20035;-74
2021/10/12 07:31:33;;;;;;;14.55;3.22;;;;;;;;;;4935546;29;20088;-73
2021/10/12 07:34:00;;;;;;;15.63;3.90;;;;;;;;;;4939467;28;20396;-73
2021/10/12 07:36:26;;;;;;;12.57;3.90;;;;;;;;;;4936357;29;20024;-73
2021/10/12 07:38:52;;;;;;;22.48;3.83;;;;;;;;;;4930603;28;20114;-73
2021/10/12 07:41:19;;;;;;;17.88;3.67;;;;;;;;;;4936454;28;20294;-73
2021/10/12 07:43:45;;;;;;;15.20;3.45;;;;;;;;;;4944876;28;20489;-73
2021/10/12 07:46:11;;;;;;;18.85;4.18;;;;;;;;;;4941248;28;20032;-72
2021/10/12 07:48:37;;;;;;;17.13;3.95;;;;;;;;;;4930616;28;20030;-73
2021/10/12 07:51:03;;;;;;;14.50;3.72;;;;;;;;;;4934423;28;20032;-73
2021/10/12 07:53:32;;;;;;;17.27;3.50;;;;;;;;;;4938931;28;20038;-73
2021/10/12 07:56:01;;;;;;;25.33;4.10;;;;;;;;;;4939818;29;20042;-73
2021/10/12 07:58:27;;;;;;;21.13;3.35;;;;;;;;;;4944664;29;20344;-73
2021/10/12 08:00:53;;;;;;;16.42;4.32;;;;;;;;;;4942101;28;20023;-74
2021/10/12 08:03:19;;;;;;;17.60;3.75;;;;;;;;;;4944477;28;20030;-73
2021/10/12 08:05:45;;;;;;;14.55;3.05;;;;;;;;;;4966177;28;20023;-73
2021/10/12 08:08:11;;;;;;;14.30;3.72;;;;;;;;;;4945999;28;20557;-73
2021/10/12 08:10:39;;;;;;;22.38;3.30;;;;;;;;;;4958601;28;20388;-73
2021/10/12 08:13:10;;;;;;;15.65;2.70;;;;;;;;;;4941041;28;20138;-73
2021/10/12 08:15:39;;;;;;;11.63;2.75;;;;;;;;;;4952162;28;20019;-72
2021/10/12 08:18:05;;;;;;;12.73;2.60;;;;;;;;;;4945868;28;20036;-73
2021/10/12 08:20:31;;;;;;;10.07;2.63;;;;;;;;;;4931958;29;20028;-72
2021/10/12 08:22:57;;;;;;;17.70;2.92;;;;;;;;;;4954855;28;20071;-72
2021/10/12 08:25:23;;;;;;;16.98;3.10;;;;;;;;;;4935443;29;20028;-73
2021/10/12 08:27:50;;;;;;;16.48;3.22;;;;;;;;;;4954745;28;20032;-73
2021/10/12 08:30:16;;;;;;;24.67;3.72;;;;;;;;;;4942803;28;20047;-73
2021/10/12 08:32:43;;;;;;;18.65;3.20;;;;;;;;;;4936767;28;20084;-74
2021/10/12 08:35:09;;;;;;;15.88;3.85;;;;;;;;;;4931584;28;20028;-73
2021/10/12 08:37:36;;;;;;;19.80;4.68;;;;;;;;;;4936087;29;20055;-73
2021/10/12 08:40:04;;;;;;;18.67;3.90;;;;;;;;;;4960193;28;20145;-74
2021/10/12 08:42:32;;;;;;;24.98;3.70;;;;;;;;;;4940662;28;20487;-74
2021/10/12 08:44:59;;;;;;;18.17;4.30;;;;;;;;;;4942021;28;20103;-73
2021/10/12 08:47:25;;;;;;;30.80;4.00;;;;;;;;;;4947383;28;20234;-73
2021/10/12 08:49:52;;;;;;;17.35;4.18;;;;;;;;;;4951962;28;20094;-74
2021/10/12 08:52:20;;;;;;;25.45;4.25;;;;;;;;;;4933102;28;20035;-73
2021/10/12 08:54:46;;;;;;;20.50;4.13;;;;;;;;;;4932332;29;20038;-73
2021/10/12 08:57:12;;;;;;;16.17;3.80;;;;;;;;;;4932993;28;20034;-74
2021/10/12 08:59:38;;;;;;;18.13;4.43;;;;;;;;;;4937037;28;20066;-74
2021/10/12 09:02:06;;;;;;;15.52;3.70;;;;;;;;;;4948215;28;20498;-72
2021/10/12 09:04:42;;;;;;;21.10;4.40;;;;;;;;;;4938757;28;20023;-72
2021/10/12 09:07:19;;;;;;;24.52;3.75;;;;;;;;;;4939072;28;20027;-73
2021/10/12 09:09:45;;;;;;;18.17;4.38;;;;;;;;;;4949145;28;20030;-73
2021/10/12 09:12:11;;;;;;;20.67;5.38;;;;;;;;;;4948770;28;20023;-73
2021/10/12 09:14:57;;;;;;;19.67;4.50;;;;;;;;;;4939075;28;20027;-72
2021/10/12 09:17:33;;;;;;;19.10;4.82;;;;;;;;;;4943552;28;20026;-73
2021/10/12 09:22:35;;;;;;;22.20;4.93;;;;;;;;;;3420016;23;20067;-70
2021/10/12 09:25:16;;;;;;;20.73;4.57;;;;;;;;;;4951927;28;20031;-71
2021/10/12 09:27:55;;;;;;;21.92;4.20;;;;;;;;;;4956408;28;20027;-71
2021/10/12 09:30:28;;;;;;;19.30;4.82;;;;;;;;;;4954837;28;20293;-70
2021/10/12 09:33:00;;;;;;;17.98;4.53;;;;;;;;;;4957225;28;20054;-71
2021/10/12 09:35:26;;;;;;;;;;;;;;;;;;4948138;28;20035;-71
2021/10/12 09:38:08;;;;;;;24.95;4.85;;;;;;;;;;4949017;28;19910;-70
2021/10/12 09:40:36;;;;;;;18.33;4.60;;;;;;;;;;4950543;28;20036;-69
2021/10/12 09:43:02;;;;;;;18.55;4.85;;;;;;;;;;4950126;28;20031;-71
2021/10/12 09:45:39;;;;;;;14.88;4.53;;;;;;;;;;4951362;28;20113;-70
2021/10/12 09:48:24;;;;;;;27.80;5.28;;;;;;;;;;4948002;28;20031;-71
2021/10/12 09:50:51;;;;;;;20.98;5.57;;;;;;;;;;4950103;28;20062;-70
2021/10/12 09:53:32;;;;;;;20.67;5.30;;;;;;;;;;4954548;28;20037;-69
2021/10/12 09:55:58;;;;;;;17.60;5.45;;;;;;;;;;4951716;28;20030;-70
2021/10/12 09:58:26;;;;;;;25.95;5.60;;;;;;;;;;4945547;28;20089;-71
2021/10/12 10:00:52;;;;;;;20.95;6.43;;;;;;;;;;4967528;28;20050;-71
2021/10/12 10:03:19;;;;;;;17.02;5.25;;;;;;;;;;4950913;28;20111;-70
2021/10/12 10:05:45;;;;;;;23.55;7.05;;;;;;;;;;4954360;28;20405;-70
2021/10/12 10:08:11;;;;;;;25.40;5.85;;;;;;;;;;4951865;28;20374;-70
2021/10/12 10:10:38;;;;;;;22.20;6.25;;;;;;;;;;4945200;28;20023;-71
2021/10/12 10:13:04;;;;;;;22.85;7.45;;;;;;;;;;4953516;28;20062;-70
2021/10/12 10:15:31;;;;;;;23.88;7.53;;;;;;;;;;4950529;28;20024;-71
2021/10/12 10:17:57;;;;;;;26.55;7.10;;;;;;;;;;4952485;28;20035;-71
2021/10/12 10:20:24;;;;;;;26.80;6.70;;;;;;;;;;4969452;28;20078;-71
2021/10/12 10:22:52;;;;;;;18.88;6.43;;;;;;;;;;4953768;28;20473;-71
2021/10/12 10:25:27;;;;;;;20.52;6.60;;;;;;;;;;4952544;28;20058;-72
2021/10/12 10:27:55;;;;;;;26.55;6.50;;;;;;;;;;4956995;28;20500;-70
2021/10/12 10:30:31;;;;;;;26.52;6.82;;;;;;;;;;4950252;28;20023;-71
2021/10/12 10:32:59;;;;;;;26.65;7.68;;;;;;;;;;4952145;28;20297;-71
2021/10/12 10:35:47;;;;;;;15.13;5.40;;;;;;;;;;4952621;28;20513;-71
2021/10/12 10:38:37;;;;;;;23.08;6.90;;;;;;;;;;4953190;28;20058;-71
2021/10/12 10:41:07;;;;;;;18.52;6.50;;;;;;;;;;4966011;28;20510;-70
2021/10/12 10:43:53;;;;;;;27.25;7.07;;;;;;;;;;4952024;28;20027;-70
2021/10/12 10:46:28;;;;;;;21.55;6.63;;;;;;;;;;4948623;28;20394;-70
2021/10/12 10:49:03;;;;;;;21.42;6.93;;;;;;;;;;4944266;28;20066;-69
2021/10/12 10:51:29;;;;;;;34.05;7.95;;;;;;;;;;4950231;28;20031;-71
2021/10/12 10:53:55;;;;;;;20.33;7.57;;;;;;;;;;4966873;28;20038;-71
2021/10/12 10:56:22;;;;;;;21.13;6.95;;;;;;;;;;4967153;28;20409;-70
2021/10/12 10:58:48;;;;;;;33.08;7.47;;;;;;;;;;4952413;28;20122;-70
2021/10/12 11:01:34;;;;;;;27.73;7.13;;;;;;;;;;4951574;28;20054;-70
2021/10/12 11:04:00;;;;;;;28.95;8.20;;;;;;;;;;4954225;28;20050;-70
2021/10/12 11:06:26;;;;;;;28.35;8.15;;;;;;;;;;4952029;28;20024;-70
2021/10/12 11:09:10;;;;;;;23.85;6.68;;;;;;;;;;4948045;28;20086;-70
2021/10/12 11:11:36;;;;;;;23.27;8.68;;;;;;;;;;4952250;28;20031;-70
2021/10/12 11:14:03;;;;;;;17.15;7.13;;;;;;;;;;4951539;28;20039;-70
2021/10/12 11:16:36;;;;;;;24.27;7.07;;;;;;;;;;4951631;28;20031;-70
2021/10/12 11:19:03;;;;;;;26.90;7.80;;;;;;;;;;4962758;28;20027;-68
2021/10/12 11:21:29;;;;;;;20.90;6.90;;;;;;;;;;4948646;28;20030;-70
2021/10/12 11:23:57;;;;;;;23.13;8.10;;;;;;;;;;4952856;28;20035;-69
2021/10/12 11:26:25;;;;;;;22.42;7.53;;;;;;;;;;4954257;28;20033;-69
2021/10/12 11:28:52;;;;;;;20.50;7.93;;;;;;;;;;4962421;28;20505;-69
2021/10/12 11:31:22;;;;;;;18.10;6.65;;;;;;;;;;4950708;28;20057;-70
2021/10/12 11:33:50;;;;;;;22.05;6.68;;;;;;;;;;4951572;28;20447;-69
2021/10/12 11:36:20;;;;;;;28.90;5.93;;;;;;;;;;4952157;28;20032;-70
2021/10/12 11:38:59;;;;;;;22.20;6.05;;;;;;;;;;4946123;28;20659;-70
2021/10/12 11:41:25;;;;;;;21.70;6.07;;;;;;;;;;4951209;28;20027;-71
2021/10/12 11:43:53;;;;;;;29.27;6.45;;;;;;;;;;4943939;28;20048;-70
2021/10/12 11:46:20;;;;;;;23.65;7.63;;;;;;;;;;4958701;28;20027;-70
2021/10/12 11:48:47;;;;;;;22.25;5.80;;;;;;;;;;4946744;28;20035;-69
2021/10/12 11:51:23;;;;;;;22.77;6.20;;;;;;;;;;4944158;28;20401;-70
2021/10/12 11:53:50;;;;;;;25.35;6.22;;;;;;;;;;4951687;28;20042;-70
2021/10/12 11:56:18;;;;;;;27.25;6.47;;;;;;;;;;4951793;28;20031;-70
2021/10/12 11:58:44;;;;;;;22.98;6.18;;;;;;;;;;4951038;28;20027;-71
2021/10/12 12:01:11;;;;;;;30.95;6.15;;;;;;;;;;4948278;28;20563;-70
2021/10/12 12:03:40;;;;;;;22.42;5.50;;;;;;;;;;4951887;28;20062;-70
2021/10/12 12:06:06;;;;;;;21.50;6.07;;;;;;;;;;4958362;28;20169;-71
2021/10/12 12:08:32;;;;;;;25.33;5.57;;;;;;;;;;4950665;28;20027;-70
2021/10/12 12:10:59;;;;;;;20.50;6.93;;;;;;;;;;4950973;28;20035;-70
2021/10/12 12:13:28;;;;;;;24.00;7.25;;;;;;;;;;4951682;28;20023;-70
2021/10/12 12:15:55;;;;;;;16.27;6.38;;;;;;;;;;4952093;28;20457;-70
2021/10/12 12:18:23;;;;;;;18.55;6.47;;;;;;;;;;4961614;28;20050;-69
2021/10/12 12:20:50;;;;;;;30.20;7.72;;;;;;;;;;4949800;28;20047;-70
2021/10/12 12:23:34;;;;;;;37.67;8.32;;;;;;;;;;4951240;28;20038;-69
2021/10/12 12:26:01;;;;;;;28.67;7.47;;;;;;;;;;4950654;28;20106;-69
2021/10/12 12:28:27;;;;;;;28.02;5.70;;;;;;;;;;4962273;28;20362;-69
2021/10/12 12:30:53;;;;;;;19.45;4.18;;;;;;;;;;4948071;28;20155;-69
2021/10/12 12:33:19;;;;;;;22.35;5.88;;;;;;;;;;4944975;28;20059;-68
2021/10/12 12:35:46;;;;;;;23.20;6.60;;;;;;;;;;4948523;28;20042;-69
2021/10/12 12:38:22;;;;;;;24.55;5.38;;;;;;;;;;4951186;28;20374;-69
2021/10/12 12:40:50;;;;;;;28.80;7.03;;;;;;;;;;4954023;28;20031;-70
2021/10/12 12:43:21;;;;;;;19.58;4.85;;;;;;;;;;4949623;28;20030;-69
2021/10/12 12:46:05;;;;;;;25.23;5.33;;;;;;;;;;4948411;28;20486;-71
2021/10/12 12:48:31;;;;;;;21.30;5.25;;;;;;;;;;4949557;28;20610;-69
2021/10/12 12:51:01;;;;;;;22.40;5.68;;;;;;;;;;4957365;28;20027;-71
2021/10/12 12:53:42;;;;;;;20.52;4.60;;;;;;;;;;4956585;28;20490;-69
2021/10/12 12:56:09;;;;;;;28.88;6.80;;;;;;;;;;4950030;28;20059;-70
2021/10/12 12:58:39;;;;;;;27.65;5.07;;;;;;;;;;4951806;28;20031;-70
2021/10/12 13:01:06;;;;;;;29.00;4.88;;;;;;;;;;4968119;28;20043;-69
2021/10/12 13:03:32;;;;;;;28.13;5.03;;;;;;;;;;4952913;28;20031;-70
2021/10/12 13:05:58;;;;;;;13.85;2.30;;;;;;;;;;4961850;28;20027;-70
2021/10/12 13:08:24;;;;;;;15.63;2.85;;;;;;;;;;4960077;28;20275;-69
2021/10/12 13:10:51;;;;;;;19.98;2.67;;;;;;;;;;4956513;28;20032;-70
2021/10/12 13:13:17;;;;;;;12.25;2.25;;;;;;;;;;4955966;28;20027;-69
2021/10/12 13:15:43;;;;;;;19.50;3.05;;;;;;;;;;4955937;28;20049;-69
2021/10/12 13:18:09;;;;;;;25.75;3.13;;;;;;;;;;4950503;28;20621;-68
2021/10/12 13:20:35;;;;;;;20.10;3.60;;;;;;;;;;4952756;28;20472;-69
2021/10/12 13:23:02;;;;;;;25.50;3.13;;;;;;;;;;4960252;28;20055;-68
2021/10/12 13:25:28;;;;;;;17.05;2.20;;;;;;;;;;4947968;28;20039;-69
2021/10/12 13:27:54;;;;;;;19.70;2.40;;;;;;;;;;4953690;28;20046;-69
2021/10/12 13:30:20;;;;;;;15.55;2.00;;;;;;;;;;4952487;28;20031;-70
2021/10/12 13:32:46;;;;;;;19.85;2.70;;;;;;;;;;4951987;28;20027;-69
2021/10/12 13:35:15;;;;;;;11.73;1.55;;;;;;;;;;4957687;28;20077;-69
2021/10/12 13:37:42;;;;;;;18.15;3.00;;;;;;;;;;4958894;28;20449;-71
2021/10/12 13:40:08;;;;;;;10.10;1.90;;;;;;;;;;4960475;28;20513;-69
2021/10/12 13:42:34;;;;;;;12.73;2.08;;;;;;;;;;4955761;28;20062;-69
2021/10/12 13:45:00;;;;;;;10.10;1.75;;;;;;;;;;4961286;28;21355;-69
2021/10/12 13:47:26;;;;;;;11.10;1.60;;;;;;;;;;4959711;28;20030;-68
2021/10/12 13:49:52;;;;;;;16.35;2.35;;;;;;;;;;4956730;28;20039;-67
2021/10/12 13:52:20;;;;;;;18.25;2.25;;;;;;;;;;4963039;28;20034;-67
2021/10/12 13:54:46;;;;;;;15.93;1.98;;;;;;;;;;4958897;28;20027;-67
2021/10/12 13:57:12;;;;;;;15.18;2.08;;;;;;;;;;4951270;28;20110;-67
2021/10/12 13:59:38;;;;;;;14.20;2.20;;;;;;;;;;4955106;28;20055;-67
2021/10/12 14:02:05;;;;;;;22.55;3.47;;;;;;;;;;4957081;28;20126;-67
2021/10/12 14:04:32;;;;;;;21.40;3.05;;;;;;;;;;4960260;28;20062;-68
2021/10/12 14:06:58;;;;;;;17.08;2.75;;;;;;;;;;4952124;28;20081;-68
2021/10/12 14:09:24;;;;;;;27.95;4.65;;;;;;;;;;4952479;28;20041;-69
2021/10/12 14:11:50;;;;;;;29.15;4.75;;;;;;;;;;4967513;28;20050;-69
2021/10/12 14:14:16;;;;;;;17.15;2.70;;;;;;;;;;4950767;28;20406;-68
2021/10/12 14:16:42;;;;;;;23.67;3.63;;;;;;;;;;4950922;28;20031;-68
2021/10/12 14:19:08;;;;;;;28.95;3.78;;;;;;;;;;4952356;28;20038;-68
2021/10/12 14:21:36;;;;;;;20.63;4.20;;;;;;;;;;4955704;28;20110;-69
2021/10/12 14:24:02;;;;;;;13.40;2.22;;;;;;;;;;4952523;28;20051;-68
2021/10/12 14:26:29;;;;;;;12.13;2.60;;;;;;;;;;4952649;28;20027;-68
2021/10/12 14:28:55;;;;;;;13.15;2.25;;;;;;;;;;4944286;28;20020;-69
2021/10/12 14:31:21;;;;;;;17.17;2.53;;;;;;;;;;4952641;28;20081;-68
2021/10/12 14:33:48;;;;;;;14.23;1.85;;;;;;;;;;4966650;28;20055;-68
2021/10/12 14:36:14;;;;;;;12.93;2.63;;;;;;;;;;4949930;28;20051;-68